sensor_id;sensor_type;location;lat;lon;timestamp;P1;durP1;ratioP1;P2;durP2;ratioP2
50443;SDS011;36370;52.216;21.142;2022-08-01T00:00:48;5.40;;;4.78;;
50443;SDS011;36370;52.216;21.142;2022-08-01T00:04:50;7.97;;;5.50;;
50443;SDS011;36370;52.216;21.142;2022-08-01T00:08:57;12.23;;;5.53;;
50443;SDS011;36370;52.216;21.142;2022-08-01T00:12:59;10.15;;;6.38;;
50443;SDS011;36370;52.216;21.142;2022-08-01T00:17:01;12.05;;;6.07;;
50443;SDS011;36370;52.216;21.142;2022-08-01T00:21:08;14.25;;;6.03;;
50443;SDS011;36370;52.216;21.142;2022-08-01T00:25:10;12.10;;;5.95;;
50443;SDS011;36370;52.216;21.142;2022-08-01T00:29:12;14.98;;;6.80;;
50443;SDS011;36370;52.216;21.142;2022-08-01T00:33:35;17.40;;;7.70;;
50443;SDS011;36370;52.216;21.142;2022-08-01T00:37:37;13.90;;;7.00;;
50443;SDS011;36370;52.216;21.142;2022-08-01T00:41:39;13.73;;;8.13;;
50443;SDS011;36370;52.216;21.142;2022-08-01T00:45:41;13.63;;;7.28;;
50443;SDS011;36370;52.216;21.142;2022-08-01T00:49:44;16.75;;;6.80;;
50443;SDS011;36370;52.216;21.142;2022-08-01T00:53:46;11.98;;;6.53;;
50443;SDS011;36370;52.216;21.142;2022-08-01T00:57:54;8.88;;;5.38;;
50443;SDS011;36370;52.216;21.142;2022-08-01T01:02:06;7.88;;;5.00;;
50443;SDS011;36370;52.216;21.142;2022-08-01T01:10:48;7.85;;;4.53;;
50443;SDS011;36370;52.216;21.142;2022-08-01T01:15:16;9.02;;;5.18;;
50443;SDS011;36370;52.216;21.142;2022-08-01T01:19:28;14.07;;;5.10;;
50443;SDS011;36370;52.216;21.142;2022-08-01T01:28:34;7.72;;;4.47;;
50443;SDS011;36370;52.216;21.142;2022-08-01T01:32:46;11.77;;;5.13;;
50443;SDS011;36370;52.216;21.142;2022-08-01T01:36:52;6.50;;;4.07;;
50443;SDS011;36370;52.216;21.142;2022-08-01T01:40:59;8.10;;;4.35;;
50443;SDS011;36370;52.216;21.142;2022-08-01T01:45:04;11.23;;;5.32;;
50443;SDS011;36370;52.216;21.142;2022-08-01T01:49:07;17.13;;;5.95;;
50443;SDS011;36370;52.216;21.142;2022-08-01T01:53:12;13.77;;;6.80;;
50443;SDS011;36370;52.216;21.142;2022-08-01T01:57:17;20.20;;;7.75;;
50443;SDS011;36370;52.216;21.142;2022-08-01T02:01:21;16.88;;;7.38;;
50443;SDS011;36370;52.216;21.142;2022-08-01T02:05:47;13.90;;;6.05;;
50443;SDS011;36370;52.216;21.142;2022-08-01T02:09:51;14.45;;;6.45;;
50443;SDS011;36370;52.216;21.142;2022-08-01T02:14:00;14.60;;;5.93;;
50443;SDS011;36370;52.216;21.142;2022-08-01T02:18:04;16.33;;;5.70;;
50443;SDS011;36370;52.216;21.142;2022-08-01T02:22:10;8.60;;;5.47;;
50443;SDS011;36370;52.216;21.142;2022-08-01T02:26:15;9.63;;;6.40;;
50443;SDS011;36370;52.216;21.142;2022-08-01T02:30:20;11.95;;;6.00;;
50443;SDS011;36370;52.216;21.142;2022-08-01T02:34:26;10.25;;;4.78;;
50443;SDS011;36370;52.216;21.142;2022-08-01T02:38:35;15.23;;;5.57;;
50443;SDS011;36370;52.216;21.142;2022-08-01T02:42:39;18.00;;;7.15;;
50443;SDS011;36370;52.216;21.142;2022-08-01T02:46:49;11.50;;;5.55;;
50443;SDS011;36370;52.216;21.142;2022-08-01T02:50:57;10.23;;;5.53;;
50443;SDS011;36370;52.216;21.142;2022-08-01T02:55:05;13.35;;;5.78;;
50443;SDS011;36370;52.216;21.142;2022-08-01T02:59:12;8.32;;;4.65;;
50443;SDS011;36370;52.216;21.142;2022-08-01T03:03:23;11.00;;;5.25;;
50443;SDS011;36370;52.216;21.142;2022-08-01T03:07:26;10.27;;;4.80;;
50443;SDS011;36370;52.216;21.142;2022-08-01T03:11:35;11.43;;;3.80;;
50443;SDS011;36370;52.216;21.142;2022-08-01T03:15:42;6.82;;;3.85;;
50443;SDS011;36370;52.216;21.142;2022-08-01T03:19:46;10.32;;;4.40;;
50443;SDS011;36370;52.216;21.142;2022-08-01T03:23:52;15.57;;;4.88;;
50443;SDS011;36370;52.216;21.142;2022-08-01T03:27:59;7.30;;;4.88;;
50443;SDS011;36370;52.216;21.142;2022-08-01T03:32:05;11.43;;;5.10;;
50443;SDS011;36370;52.216;21.142;2022-08-01T03:36:09;13.90;;;5.68;;
50443;SDS011;36370;52.216;21.142;2022-08-01T03:40:22;9.05;;;5.32;;
50443;SDS011;36370;52.216;21.142;2022-08-01T03:44:28;10.07;;;4.32;;
50443;SDS011;36370;52.216;21.142;2022-08-01T03:48:35;9.55;;;4.95;;
50443;SDS011;36370;52.216;21.142;2022-08-01T03:52:42;7.78;;;4.90;;
50443;SDS011;36370;52.216;21.142;2022-08-01T03:56:47;8.15;;;6.20;;
50443;SDS011;36370;52.216;21.142;2022-08-01T04:00:51;8.85;;;5.18;;
50443;SDS011;36370;52.216;21.142;2022-08-01T04:04:54;11.52;;;5.57;;
50443;SDS011;36370;52.216;21.142;2022-08-01T04:08:57;12.23;;;5.65;;
50443;SDS011;36370;52.216;21.142;2022-08-01T04:12:59;10.82;;;5.22;;
50443;SDS011;36370;52.216;21.142;2022-08-01T04:17:02;12.43;;;5.82;;
50443;SDS011;36370;52.216;21.142;2022-08-01T04:21:04;7.65;;;5.53;;
50443;SDS011;36370;52.216;21.142;2022-08-01T04:25:14;9.65;;;5.90;;
50443;SDS011;36370;52.216;21.142;2022-08-01T04:29:21;14.93;;;5.65;;
50443;SDS011;36370;52.216;21.142;2022-08-01T04:33:25;15.98;;;6.70;;
50443;SDS011;36370;52.216;21.142;2022-08-01T04:37:30;9.55;;;4.75;;
50443;SDS011;36370;52.216;21.142;2022-08-01T04:41:33;15.15;;;6.63;;
50443;SDS011;36370;52.216;21.142;2022-08-01T04:45:37;10.75;;;6.10;;
50443;SDS011;36370;52.216;21.142;2022-08-01T04:49:41;12.63;;;5.85;;
50443;SDS011;36370;52.216;21.142;2022-08-01T04:53:50;14.55;;;6.57;;
50443;SDS011;36370;52.216;21.142;2022-08-01T04:57:52;13.13;;;6.00;;
50443;SDS011;36370;52.216;21.142;2022-08-01T05:01:54;12.90;;;6.13;;
50443;SDS011;36370;52.216;21.142;2022-08-01T05:05:57;13.27;;;5.93;;
50443;SDS011;36370;52.216;21.142;2022-08-01T05:09:59;14.20;;;7.45;;
50443;SDS011;36370;52.216;21.142;2022-08-01T05:14:06;29.52;;;7.25;;
50443;SDS011;36370;52.216;21.142;2022-08-01T05:18:08;13.40;;;6.25;;
50443;SDS011;36370;52.216;21.142;2022-08-01T05:22:11;17.02;;;7.00;;
50443;SDS011;36370;52.216;21.142;2022-08-01T05:26:14;15.68;;;6.90;;
50443;SDS011;36370;52.216;21.142;2022-08-01T05:30:17;14.85;;;7.03;;
50443;SDS011;36370;52.216;21.142;2022-08-01T05:34:19;15.57;;;7.30;;
50443;SDS011;36370;52.216;21.142;2022-08-01T05:38:22;17.25;;;6.88;;
50443;SDS011;36370;52.216;21.142;2022-08-01T05:42:24;13.13;;;6.93;;
50443;SDS011;36370;52.216;21.142;2022-08-01T05:46:27;17.70;;;7.30;;
50443;SDS011;36370;52.216;21.142;2022-08-01T05:50:29;12.52;;;7.13;;
50443;SDS011;36370;52.216;21.142;2022-08-01T05:54:32;13.63;;;7.40;;
50443;SDS011;36370;52.216;21.142;2022-08-01T05:58:34;28.17;;;10.23;;
50443;SDS011;36370;52.216;21.142;2022-08-01T06:02:39;25.95;;;10.18;;
50443;SDS011;36370;52.216;21.142;2022-08-01T06:06:43;21.60;;;9.15;;
50443;SDS011;36370;52.216;21.142;2022-08-01T06:10:46;19.38;;;7.35;;
50443;SDS011;36370;52.216;21.142;2022-08-01T06:14:48;15.35;;;6.90;;
50443;SDS011;36370;52.216;21.142;2022-08-01T06:18:51;18.35;;;6.85;;
50443;SDS011;36370;52.216;21.142;2022-08-01T06:22:57;15.57;;;6.45;;
50443;SDS011;36370;52.216;21.142;2022-08-01T06:27:02;16.27;;;5.80;;
50443;SDS011;36370;52.216;21.142;2022-08-01T06:31:22;17.77;;;5.55;;
50443;SDS011;36370;52.216;21.142;2022-08-01T06:35:25;16.50;;;5.38;;
50443;SDS011;36370;52.216;21.142;2022-08-01T06:39:28;12.07;;;5.57;;
50443;SDS011;36370;52.216;21.142;2022-08-01T06:43:32;14.52;;;4.90;;
50443;SDS011;36370;52.216;21.142;2022-08-01T06:47:35;13.68;;;5.57;;
50443;SDS011;36370;52.216;21.142;2022-08-01T06:51:38;14.40;;;4.95;;
50443;SDS011;36370;52.216;21.142;2022-08-01T06:55:40;11.15;;;4.50;;
50443;SDS011;36370;52.216;21.142;2022-08-01T06:59:43;18.15;;;5.40;;
50443;SDS011;36370;52.216;21.142;2022-08-01T07:03:55;10.85;;;5.20;;
50443;SDS011;36370;52.216;21.142;2022-08-01T07:07:57;12.88;;;5.47;;
50443;SDS011;36370;52.216;21.142;2022-08-01T07:11:59;9.75;;;2.47;;
50443;SDS011;36370;52.216;21.142;2022-08-01T07:16:02;6.50;;;2.45;;
50443;SDS011;36370;52.216;21.142;2022-08-01T07:20:05;5.57;;;2.65;;
50443;SDS011;36370;52.216;21.142;2022-08-01T07:24:12;7.07;;;2.47;;
50443;SDS011;36370;52.216;21.142;2022-08-01T07:28:16;8.25;;;2.45;;
50443;SDS011;36370;52.216;21.142;2022-08-01T07:32:18;6.90;;;2.33;;
50443;SDS011;36370;52.216;21.142;2022-08-01T07:36:20;6.07;;;2.10;;
50443;SDS011;36370;52.216;21.142;2022-08-01T07:40:23;5.72;;;1.73;;
50443;SDS011;36370;52.216;21.142;2022-08-01T07:44:25;8.82;;;1.80;;
50443;SDS011;36370;52.216;21.142;2022-08-01T07:48:30;7.35;;;1.73;;
50443;SDS011;36370;52.216;21.142;2022-08-01T07:52:32;8.13;;;1.80;;
50443;SDS011;36370;52.216;21.142;2022-08-01T07:56:35;4.95;;;2.17;;
50443;SDS011;36370;52.216;21.142;2022-08-01T08:00:37;9.25;;;2.28;;
50443;SDS011;36370;52.216;21.142;2022-08-01T08:04:40;10.98;;;2.50;;
50443;SDS011;36370;52.216;21.142;2022-08-01T08:08:49;6.35;;;2.80;;
50443;SDS011;36370;52.216;21.142;2022-08-01T08:12:51;17.02;;;3.63;;
50443;SDS011;36370;52.216;21.142;2022-08-01T08:16:54;4.07;;;2.10;;
50443;SDS011;36370;52.216;21.142;2022-08-01T08:20:58;5.38;;;1.75;;
50443;SDS011;36370;52.216;21.142;2022-08-01T08:25:07;3.95;;;1.80;;
50443;SDS011;36370;52.216;21.142;2022-08-01T08:29:12;6.55;;;2.47;;
50443;SDS011;36370;52.216;21.142;2022-08-01T08:33:14;6.88;;;2.08;;
50443;SDS011;36370;52.216;21.142;2022-08-01T08:37:17;9.65;;;2.00;;
50443;SDS011;36370;52.216;21.142;2022-08-01T08:41:22;5.50;;;1.92;;
50443;SDS011;36370;52.216;21.142;2022-08-01T08:45:24;4.43;;;1.90;;
50443;SDS011;36370;52.216;21.142;2022-08-01T08:49:46;5.53;;;2.08;;
50443;SDS011;36370;52.216;21.142;2022-08-01T08:53:51;5.78;;;1.73;;
50443;SDS011;36370;52.216;21.142;2022-08-01T08:57:55;8.25;;;2.00;;
50443;SDS011;36370;52.216;21.142;2022-08-01T09:01:59;8.45;;;2.83;;
50443;SDS011;36370;52.216;21.142;2022-08-01T09:06:03;7.72;;;2.55;;
50443;SDS011;36370;52.216;21.142;2022-08-01T09:10:05;7.00;;;2.00;;
50443;SDS011;36370;52.216;21.142;2022-08-01T09:14:15;11.15;;;2.25;;
50443;SDS011;36370;52.216;21.142;2022-08-01T09:26:36;10.02;;;2.55;;
50443;SDS011;36370;52.216;21.142;2022-08-01T09:30:38;4.93;;;2.00;;
50443;SDS011;36370;52.216;21.142;2022-08-01T09:34:41;1.92;;;1.40;;
50443;SDS011;36370;52.216;21.142;2022-08-01T09:38:43;9.48;;;1.90;;
50443;SDS011;36370;52.216;21.142;2022-08-01T09:42:51;10.20;;;2.38;;
50443;SDS011;36370;52.216;21.142;2022-08-01T09:47:16;4.75;;;1.98;;
50443;SDS011;36370;52.216;21.142;2022-08-01T09:51:42;6.65;;;2.08;;
50443;SDS011;36370;52.216;21.142;2022-08-01T09:56:11;6.47;;;1.65;;
50443;SDS011;36370;52.216;21.142;2022-08-01T10:00:16;5.20;;;2.20;;
50443;SDS011;36370;52.216;21.142;2022-08-01T10:04:47;8.80;;;2.45;;
50443;SDS011;36370;52.216;21.142;2022-08-01T10:08:51;9.10;;;2.22;;
50443;SDS011;36370;52.216;21.142;2022-08-01T10:12:53;7.43;;;1.60;;
50443;SDS011;36370;52.216;21.142;2022-08-01T10:16:59;4.97;;;1.48;;
50443;SDS011;36370;52.216;21.142;2022-08-01T10:21:06;5.65;;;1.70;;
50443;SDS011;36370;52.216;21.142;2022-08-01T10:25:11;7.70;;;1.83;;
50443;SDS011;36370;52.216;21.142;2022-08-01T10:29:50;3.08;;;1.40;;
50443;SDS011;36370;52.216;21.142;2022-08-01T10:34:09;2.97;;;1.50;;
50443;SDS011;36370;52.216;21.142;2022-08-01T10:38:14;12.02;;;1.95;;
50443;SDS011;36370;52.216;21.142;2022-08-01T10:42:18;7.28;;;1.90;;
50443;SDS011;36370;52.216;21.142;2022-08-01T10:46:20;8.32;;;2.55;;
50443;SDS011;36370;52.216;21.142;2022-08-01T10:50:42;3.10;;;1.60;;
50443;SDS011;36370;52.216;21.142;2022-08-01T10:54:49;6.75;;;2.20;;
50443;SDS011;36370;52.216;21.142;2022-08-01T10:59:04;5.05;;;1.58;;
50443;SDS011;36370;52.216;21.142;2022-08-01T11:03:12;3.63;;;1.53;;
50443;SDS011;36370;52.216;21.142;2022-08-01T11:07:17;4.55;;;1.48;;
50443;SDS011;36370;52.216;21.142;2022-08-01T11:11:26;3.33;;;1.25;;
50443;SDS011;36370;52.216;21.142;2022-08-01T11:15:38;6.05;;;1.92;;
50443;SDS011;36370;52.216;21.142;2022-08-01T11:24:14;3.40;;;1.60;;
50443;SDS011;36370;52.216;21.142;2022-08-01T11:28:18;6.07;;;1.70;;
50443;SDS011;36370;52.216;21.142;2022-08-01T11:32:31;4.47;;;1.88;;
50443;SDS011;36370;52.216;21.142;2022-08-01T11:37:18;7.50;;;2.65;;
50443;SDS011;36370;52.216;21.142;2022-08-01T11:41:32;6.15;;;2.28;;
50443;SDS011;36370;52.216;21.142;2022-08-01T11:45:52;3.75;;;1.55;;
50443;SDS011;36370;52.216;21.142;2022-08-01T11:50:00;4.55;;;1.90;;
50443;SDS011;36370;52.216;21.142;2022-08-01T11:54:03;6.35;;;2.58;;
50443;SDS011;36370;52.216;21.142;2022-08-01T11:58:06;3.42;;;1.70;;
50443;SDS011;36370;52.216;21.142;2022-08-01T12:02:29;3.85;;;1.98;;
50443;SDS011;36370;52.216;21.142;2022-08-01T12:06:33;3.85;;;1.70;;
50443;SDS011;36370;52.216;21.142;2022-08-01T12:10:36;4.97;;;2.13;;
50443;SDS011;36370;52.216;21.142;2022-08-01T12:14:54;5.00;;;2.20;;
50443;SDS011;36370;52.216;21.142;2022-08-01T12:18:58;7.18;;;2.35;;
50443;SDS011;36370;52.216;21.142;2022-08-01T12:23:06;3.88;;;2.15;;
50443;SDS011;36370;52.216;21.142;2022-08-01T12:27:10;5.30;;;1.85;;
50443;SDS011;36370;52.216;21.142;2022-08-01T12:31:32;8.30;;;2.13;;
50443;SDS011;36370;52.216;21.142;2022-08-01T12:35:36;8.02;;;1.98;;
50443;SDS011;36370;52.216;21.142;2022-08-01T12:39:39;3.65;;;2.03;;
50443;SDS011;36370;52.216;21.142;2022-08-01T12:43:42;2.08;;;1.55;;
50443;SDS011;36370;52.216;21.142;2022-08-01T12:47:45;3.42;;;1.80;;
50443;SDS011;36370;52.216;21.142;2022-08-01T12:51:48;6.13;;;1.85;;
50443;SDS011;36370;52.216;21.142;2022-08-01T12:55:58;8.45;;;2.05;;
50443;SDS011;36370;52.216;21.142;2022-08-01T13:04:09;8.50;;;2.22;;
50443;SDS011;36370;52.216;21.142;2022-08-01T13:08:15;3.30;;;1.88;;
50443;SDS011;36370;52.216;21.142;2022-08-01T13:12:21;5.35;;;2.22;;
50443;SDS011;36370;52.216;21.142;2022-08-01T13:16:25;5.88;;;2.08;;
50443;SDS011;36370;52.216;21.142;2022-08-01T13:20:48;3.72;;;2.10;;
50443;SDS011;36370;52.216;21.142;2022-08-01T13:24:53;5.35;;;2.08;;
50443;SDS011;36370;52.216;21.142;2022-08-01T13:29:16;4.20;;;1.92;;
50443;SDS011;36370;52.216;21.142;2022-08-01T13:33:23;4.75;;;1.90;;
50443;SDS011;36370;52.216;21.142;2022-08-01T13:37:26;4.65;;;2.28;;
50443;SDS011;36370;52.216;21.142;2022-08-01T13:41:28;4.93;;;2.17;;
50443;SDS011;36370;52.216;21.142;2022-08-01T13:45:35;5.07;;;1.58;;
50443;SDS011;36370;52.216;21.142;2022-08-01T13:49:37;3.03;;;1.90;;
50443;SDS011;36370;52.216;21.142;2022-08-01T13:53:41;6.15;;;1.80;;
50443;SDS011;36370;52.216;21.142;2022-08-01T13:57:43;6.43;;;1.92;;
50443;SDS011;36370;52.216;21.142;2022-08-01T14:01:46;3.97;;;2.15;;
50443;SDS011;36370;52.216;21.142;2022-08-01T14:05:48;6.13;;;2.10;;
50443;SDS011;36370;52.216;21.142;2022-08-01T14:09:59;5.05;;;3.03;;
50443;SDS011;36370;52.216;21.142;2022-08-01T14:14:20;4.32;;;2.30;;
50443;SDS011;36370;52.216;21.142;2022-08-01T14:18:23;7.38;;;2.67;;
50443;SDS011;36370;52.216;21.142;2022-08-01T14:22:26;8.13;;;3.10;;
50443;SDS011;36370;52.216;21.142;2022-08-01T14:26:28;9.13;;;2.40;;
50443;SDS011;36370;52.216;21.142;2022-08-01T14:30:30;8.80;;;3.15;;
50443;SDS011;36370;52.216;21.142;2022-08-01T14:34:32;4.32;;;2.88;;
50443;SDS011;36370;52.216;21.142;2022-08-01T14:38:35;5.28;;;2.80;;
50443;SDS011;36370;52.216;21.142;2022-08-01T14:42:37;9.48;;;2.83;;
50443;SDS011;36370;52.216;21.142;2022-08-01T14:46:40;4.53;;;2.97;;
50443;SDS011;36370;52.216;21.142;2022-08-01T14:50:59;4.57;;;2.92;;
50443;SDS011;36370;52.216;21.142;2022-08-01T14:55:05;5.50;;;3.22;;
50443;SDS011;36370;52.216;21.142;2022-08-01T14:59:09;4.15;;;2.90;;
50443;SDS011;36370;52.216;21.142;2022-08-01T15:03:22;4.30;;;3.17;;
50443;SDS011;36370;52.216;21.142;2022-08-01T15:07:24;4.22;;;2.80;;
50443;SDS011;36370;52.216;21.142;2022-08-01T15:11:27;8.63;;;3.60;;
50443;SDS011;36370;52.216;21.142;2022-08-01T15:15:35;6.75;;;3.08;;
50443;SDS011;36370;52.216;21.142;2022-08-01T15:19:37;5.63;;;2.60;;
50443;SDS011;36370;52.216;21.142;2022-08-01T15:23:43;6.22;;;2.65;;
50443;SDS011;36370;52.216;21.142;2022-08-01T15:27:45;2.78;;;2.28;;
50443;SDS011;36370;52.216;21.142;2022-08-01T15:31:47;7.72;;;3.42;;
50443;SDS011;36370;52.216;21.142;2022-08-01T15:35:49;5.53;;;3.22;;
50443;SDS011;36370;52.216;21.142;2022-08-01T15:39:53;4.05;;;2.92;;
50443;SDS011;36370;52.216;21.142;2022-08-01T15:43:57;8.50;;;2.88;;
50443;SDS011;36370;52.216;21.142;2022-08-01T15:47:59;6.63;;;2.58;;
50443;SDS011;36370;52.216;21.142;2022-08-01T15:52:02;7.88;;;3.50;;
50443;SDS011;36370;52.216;21.142;2022-08-01T15:56:23;5.20;;;3.28;;
50443;SDS011;36370;52.216;21.142;2022-08-01T16:00:25;2.95;;;2.33;;
50443;SDS011;36370;52.216;21.142;2022-08-01T16:04:39;10.35;;;3.22;;
50443;SDS011;36370;52.216;21.142;2022-08-01T16:08:41;4.43;;;2.90;;
50443;SDS011;36370;52.216;21.142;2022-08-01T16:12:44;11.32;;;2.60;;
50443;SDS011;36370;52.216;21.142;2022-08-01T16:16:46;6.07;;;2.75;;
50443;SDS011;36370;52.216;21.142;2022-08-01T16:20:49;3.45;;;2.30;;
50443;SDS011;36370;52.216;21.142;2022-08-01T16:24:51;4.35;;;2.90;;
50443;SDS011;36370;52.216;21.142;2022-08-01T16:28:58;3.40;;;2.63;;
50443;SDS011;36370;52.216;21.142;2022-08-01T16:33:00;3.83;;;2.90;;
50443;SDS011;36370;52.216;21.142;2022-08-01T16:37:22;3.97;;;2.42;;
50443;SDS011;36370;52.216;21.142;2022-08-01T16:41:24;4.45;;;2.80;;
50443;SDS011;36370;52.216;21.142;2022-08-01T16:45:27;3.20;;;2.55;;
50443;SDS011;36370;52.216;21.142;2022-08-01T16:49:29;3.45;;;2.40;;
50443;SDS011;36370;52.216;21.142;2022-08-01T16:53:32;4.63;;;2.50;;
50443;SDS011;36370;52.216;21.142;2022-08-01T16:57:35;2.83;;;2.15;;
50443;SDS011;36370;52.216;21.142;2022-08-01T17:01:39;3.08;;;2.55;;
50443;SDS011;36370;52.216;21.142;2022-08-01T17:06:01;6.10;;;3.25;;
50443;SDS011;36370;52.216;21.142;2022-08-01T17:10:04;3.40;;;2.35;;
50443;SDS011;36370;52.216;21.142;2022-08-01T17:14:08;6.00;;;2.70;;
50443;SDS011;36370;52.216;21.142;2022-08-01T17:18:10;6.05;;;2.65;;
50443;SDS011;36370;52.216;21.142;2022-08-01T17:22:12;6.20;;;2.05;;
50443;SDS011;36370;52.216;21.142;2022-08-01T17:26:14;7.60;;;2.35;;
50443;SDS011;36370;52.216;21.142;2022-08-01T17:30:16;8.70;;;2.80;;
50443;SDS011;36370;52.216;21.142;2022-08-01T17:34:20;8.15;;;2.42;;
50443;SDS011;36370;52.216;21.142;2022-08-01T17:38:22;4.53;;;2.17;;
50443;SDS011;36370;52.216;21.142;2022-08-01T17:42:25;6.18;;;2.75;;
50443;SDS011;36370;52.216;21.142;2022-08-01T17:46:30;5.28;;;2.55;;
50443;SDS011;36370;52.216;21.142;2022-08-01T17:50:33;5.85;;;3.13;;
50443;SDS011;36370;52.216;21.142;2022-08-01T17:54:35;3.85;;;2.83;;
50443;SDS011;36370;52.216;21.142;2022-08-01T17:58:37;6.65;;;2.67;;
50443;SDS011;36370;52.216;21.142;2022-08-01T18:02:52;4.20;;;2.88;;
50443;SDS011;36370;52.216;21.142;2022-08-01T18:06:56;4.95;;;2.80;;
50443;SDS011;36370;52.216;21.142;2022-08-01T18:10:59;4.35;;;2.88;;
50443;SDS011;36370;52.216;21.142;2022-08-01T18:15:02;7.75;;;3.08;;
50443;SDS011;36370;52.216;21.142;2022-08-01T18:19:07;7.90;;;3.70;;
50443;SDS011;36370;52.216;21.142;2022-08-01T18:23:09;6.28;;;3.25;;
50443;SDS011;36370;52.216;21.142;2022-08-01T18:27:11;14.95;;;3.55;;
50443;SDS011;36370;52.216;21.142;2022-08-01T18:31:14;8.50;;;4.20;;
50443;SDS011;36370;52.216;21.142;2022-08-01T18:35:22;5.75;;;4.13;;
50443;SDS011;36370;52.216;21.142;2022-08-01T18:39:45;6.28;;;3.88;;
50443;SDS011;36370;52.216;21.142;2022-08-01T18:43:47;4.60;;;3.97;;
50443;SDS011;36370;52.216;21.142;2022-08-01T18:47:49;6.20;;;4.15;;
50443;SDS011;36370;52.216;21.142;2022-08-01T18:51:51;7.72;;;4.97;;
50443;SDS011;36370;52.216;21.142;2022-08-01T18:55:55;6.65;;;3.92;;
50443;SDS011;36370;52.216;21.142;2022-08-01T18:59:57;7.50;;;4.60;;
50443;SDS011;36370;52.216;21.142;2022-08-01T19:04:00;5.35;;;4.53;;
50443;SDS011;36370;52.216;21.142;2022-08-01T19:08:02;7.30;;;4.70;;
50443;SDS011;36370;52.216;21.142;2022-08-01T19:12:08;8.20;;;4.55;;
50443;SDS011;36370;52.216;21.142;2022-08-01T19:16:10;6.80;;;4.03;;
50443;SDS011;36370;52.216;21.142;2022-08-01T19:20:12;8.43;;;4.57;;
50443;SDS011;36370;52.216;21.142;2022-08-01T19:24:14;9.35;;;4.00;;
50443;SDS011;36370;52.216;21.142;2022-08-01T19:28:25;8.27;;;4.63;;
50443;SDS011;36370;52.216;21.142;2022-08-01T19:32:28;7.53;;;4.50;;
50443;SDS011;36370;52.216;21.142;2022-08-01T19:36:35;5.78;;;4.38;;
50443;SDS011;36370;52.216;21.142;2022-08-01T19:40:38;4.28;;;3.67;;
50443;SDS011;36370;52.216;21.142;2022-08-01T19:44:41;9.77;;;5.03;;
50443;SDS011;36370;52.216;21.142;2022-08-01T19:48:45;5.70;;;4.78;;
50443;SDS011;36370;52.216;21.142;2022-08-01T19:52:55;7.45;;;4.68;;
50443;SDS011;36370;52.216;21.142;2022-08-01T19:57:00;5.80;;;4.75;;
50443;SDS011;36370;52.216;21.142;2022-08-01T20:01:05;6.28;;;4.38;;
50443;SDS011;36370;52.216;21.142;2022-08-01T20:05:08;8.57;;;5.53;;
50443;SDS011;36370;52.216;21.142;2022-08-01T20:09:11;6.68;;;5.13;;
50443;SDS011;36370;52.216;21.142;2022-08-01T20:13:14;7.35;;;5.25;;
50443;SDS011;36370;52.216;21.142;2022-08-01T20:17:19;8.25;;;5.90;;
50443;SDS011;36370;52.216;21.142;2022-08-01T20:21:22;8.30;;;5.30;;
50443;SDS011;36370;52.216;21.142;2022-08-01T20:25:29;8.68;;;5.72;;
50443;SDS011;36370;52.216;21.142;2022-08-01T20:29:41;9.75;;;5.68;;
50443;SDS011;36370;52.216;21.142;2022-08-01T20:33:46;7.68;;;5.60;;
50443;SDS011;36370;52.216;21.142;2022-08-01T20:37:50;8.88;;;6.22;;
50443;SDS011;36370;52.216;21.142;2022-08-01T20:42:07;13.07;;;6.70;;
50443;SDS011;36370;52.216;21.142;2022-08-01T20:46:10;9.52;;;7.03;;
50443;SDS011;36370;52.216;21.142;2022-08-01T20:50:13;7.28;;;6.15;;
50443;SDS011;36370;52.216;21.142;2022-08-01T20:54:54;9.98;;;6.68;;
50443;SDS011;36370;52.216;21.142;2022-08-01T21:03:18;8.23;;;6.15;;
50443;SDS011;36370;52.216;21.142;2022-08-01T21:07:48;7.38;;;6.50;;
50443;SDS011;36370;52.216;21.142;2022-08-01T21:12:01;8.70;;;6.03;;
50443;SDS011;36370;52.216;21.142;2022-08-01T21:16:11;13.73;;;9.07;;
50443;SDS011;36370;52.216;21.142;2022-08-01T21:20:26;14.00;;;8.52;;
50443;SDS011;36370;52.216;21.142;2022-08-01T21:24:33;14.45;;;8.50;;
50443;SDS011;36370;52.216;21.142;2022-08-01T21:28:43;15.55;;;9.50;;
50443;SDS011;36370;52.216;21.142;2022-08-01T21:32:56;18.58;;;10.65;;
50443;SDS011;36370;52.216;21.142;2022-08-01T21:36:58;13.98;;;9.82;;
50443;SDS011;36370;52.216;21.142;2022-08-01T21:41:01;16.27;;;11.45;;
50443;SDS011;36370;52.216;21.142;2022-08-01T21:45:05;18.27;;;11.40;;
50443;SDS011;36370;52.216;21.142;2022-08-01T21:49:10;16.88;;;12.13;;
50443;SDS011;36370;52.216;21.142;2022-08-01T21:53:22;14.27;;;10.73;;
50443;SDS011;36370;52.216;21.142;2022-08-01T21:57:57;16.48;;;10.38;;
50443;SDS011;36370;52.216;21.142;2022-08-01T22:02:11;14.95;;;10.10;;
50443;SDS011;36370;52.216;21.142;2022-08-01T22:06:20;11.85;;;8.82;;
50443;SDS011;36370;52.216;21.142;2022-08-01T22:10:25;15.05;;;10.10;;
50443;SDS011;36370;52.216;21.142;2022-08-01T22:14:28;12.10;;;9.35;;
50443;SDS011;36370;52.216;21.142;2022-08-01T22:18:32;10.38;;;9.02;;
50443;SDS011;36370;52.216;21.142;2022-08-01T22:22:40;14.17;;;9.23;;
50443;SDS011;36370;52.216;21.142;2022-08-01T22:26:52;10.55;;;8.77;;
50443;SDS011;36370;52.216;21.142;2022-08-01T22:30:58;14.23;;;9.77;;
50443;SDS011;36370;52.216;21.142;2022-08-01T22:35:03;14.90;;;9.30;;
50443;SDS011;36370;52.216;21.142;2022-08-01T22:39:09;10.27;;;7.47;;
50443;SDS011;36370;52.216;21.142;2022-08-01T22:47:46;14.68;;;8.65;;
50443;SDS011;36370;52.216;21.142;2022-08-01T22:52:17;9.90;;;8.43;;
50443;SDS011;36370;52.216;21.142;2022-08-01T22:56:25;8.25;;;6.70;;
50443;SDS011;36370;52.216;21.142;2022-08-01T23:00:30;11.02;;;7.30;;
50443;SDS011;36370;52.216;21.142;2022-08-01T23:04:41;12.32;;;8.20;;
50443;SDS011;36370;52.216;21.142;2022-08-01T23:08:46;9.80;;;8.07;;
50443;SDS011;36370;52.216;21.142;2022-08-01T23:12:50;10.75;;;7.57;;
50443;SDS011;36370;52.216;21.142;2022-08-01T23:16:54;10.85;;;8.43;;
50443;SDS011;36370;52.216;21.142;2022-08-01T23:21:24;11.38;;;9.65;;
50443;SDS011;36370;52.216;21.142;2022-08-01T23:25:28;15.00;;;9.30;;
50443;SDS011;36370;52.216;21.142;2022-08-01T23:29:32;11.70;;;9.13;;
50443;SDS011;36370;52.216;21.142;2022-08-01T23:33:35;10.23;;;8.05;;
50443;SDS011;36370;52.216;21.142;2022-08-01T23:37:37;9.15;;;7.80;;
50443;SDS011;36370;52.216;21.142;2022-08-01T23:41:39;13.45;;;8.65;;
50443;SDS011;36370;52.216;21.142;2022-08-01T23:45:59;12.77;;;9.05;;
50443;SDS011;36370;52.216;21.142;2022-08-01T23:50:06;15.70;;;8.48;;
50443;SDS011;36370;52.216;21.142;2022-08-01T23:54:09;10.40;;;8.65;;
50443;SDS011;36370;52.216;21.142;2022-08-01T23:58:11;10.02;;;8.85;;
